Time;durP1;ratioP1;P1;durP2;ratioP2;P2;SDS_P1;SDS_P2;PMS_P1;PMS_P2;Temp;Humidity;BMP_temperature;BMP_pressure;BME280_temperature;BME280_humidity;BME280_pressure;Samples;Min_cycle;Max_cycle;Signal;HPM_P1;HPM_P2
2023/02/20 00:01:31;;;;;;;2.80;1.90;;;9.70;69.40;;;;;;5058963;28;20230;-71
2023/02/20 00:03:58;;;;;;;6.35;2.38;;;9.70;70.00;;;;;;5054377;28;20218;-70
2023/02/20 00:06:25;;;;;;;2.60;1.40;;;9.60;69.80;;;;;;5068494;28;20189;-71
2023/02/20 00:08:52;;;;;;;5.00;1.90;;;9.60;69.20;;;;;;5074876;28;20243;-71
2023/02/20 00:11:19;;;;;;;2.95;2.10;;;9.70;68.90;;;;;;5061003;28;20267;-71
2023/02/20 00:13:48;;;;;;;2.35;1.63;;;9.70;68.90;;;;;;5054707;28;20244;-71
2023/02/20 00:16:15;;;;;;;3.22;1.60;;;9.60;69.10;;;;;;5055601;28;20191;-71
2023/02/20 00:18:44;;;;;;;3.28;1.83;;;9.60;69.20;;;;;;5054806;28;20264;-71
2023/02/20 00:21:12;;;;;;;2.63;1.77;;;9.60;69.40;;;;;;5065184;28;20189;-71
2023/02/20 00:23:39;;;;;;;4.40;1.90;;;9.60;68.90;;;;;;5074508;28;20214;-71
2023/02/20 00:26:09;;;;;;;2.20;1.45;;;9.60;68.30;;;;;;5064028;28;20244;-71
2023/02/20 00:28:38;;;;;;;3.35;1.65;;;9.70;68.40;;;;;;5054407;28;20194;-71
2023/02/20 00:31:06;;;;;;;6.60;2.20;;;9.60;68.60;;;;;;5071266;28;20186;-71
2023/02/20 00:33:35;;;;;;;4.38;1.95;;;9.60;68.80;;;;;;5074127;28;20221;-70
2023/02/20 00:36:05;;;;;;;4.88;2.20;;;9.60;68.90;;;;;;5057573;28;20277;-71
2023/02/20 00:38:32;;;;;;;3.90;1.60;;;9.60;69.00;;;;;;5054412;28;20540;-70
2023/02/20 00:40:59;;;;;;;3.55;1.70;;;9.60;69.10;;;;;;5065139;28;20341;-70
2023/02/20 00:43:27;;;;;;;2.83;1.55;;;9.60;69.40;;;;;;5054499;28;20221;-70
2023/02/20 00:45:54;;;;;;;5.35;1.92;;;9.60;69.20;;;;;;5053795;28;20664;-70
2023/02/20 00:48:22;;;;;;;2.85;1.88;;;9.60;69.00;;;;;;5066386;28;20657;-71
2023/02/20 00:50:49;;;;;;;3.65;1.90;;;9.60;69.00;;;;;;5072829;28;20277;-71
2023/02/20 00:53:17;;;;;;;3.30;1.80;;;9.70;68.80;;;;;;5061069;28;20285;-71
2023/02/20 00:55:45;;;;;;;3.10;1.60;;;9.70;68.50;;;;;;5053946;28;20190;-71
2023/02/20 00:58:12;;;;;;;7.95;2.45;;;9.70;68.60;;;;;;5072633;28;20193;-71
2023/02/20 01:00:39;;;;;;;5.57;2.10;;;9.70;68.60;;;;;;5060974;28;20754;-71
2023/02/20 01:03:06;;;;;;;2.70;1.50;;;9.60;68.50;;;;;;5053449;28;20214;-71
2023/02/20 01:05:33;;;;;;;3.85;2.13;;;9.70;68.70;;;;;;5064356;28;20267;-71
2023/02/20 01:08:00;;;;;;;3.70;1.50;;;9.60;68.70;;;;;;5073637;28;20186;-71
2023/02/20 01:10:29;;;;;;;3.45;1.90;;;9.60;68.90;;;;;;5062607;28;20220;-71
2023/02/20 01:12:56;;;;;;;5.70;2.10;;;9.60;68.80;;;;;;5053879;28;20571;-70
2023/02/20 01:15:24;;;;;;;5.20;2.13;;;9.60;68.60;;;;;;5062496;28;20182;-71
2023/02/20 01:17:51;;;;;;;3.08;1.83;;;9.60;68.50;;;;;;5072998;28;20194;-71
2023/02/20 01:20:18;;;;;;;3.08;1.65;;;9.60;68.40;;;;;;5064958;28;20540;-71
2023/02/20 01:22:45;;;;;;;3.30;1.70;;;9.60;68.40;;;;;;5053283;28;20210;-71
2023/02/20 01:25:12;;;;;;;4.20;1.80;;;9.60;68.40;;;;;;5067874;28;20644;-71
2023/02/20 01:27:41;;;;;;;3.95;1.63;;;9.60;68.40;;;;;;5072896;28;20201;-71
2023/02/20 01:30:09;;;;;;;2.50;1.50;;;9.60;68.50;;;;;;5058792;28;20241;-71
2023/02/20 01:32:36;;;;;;;4.97;1.52;;;9.60;68.30;;;;;;5062428;28;20213;-70
2023/02/20 01:35:04;;;;;;;2.88;2.20;;;9.60;67.90;;;;;;5073414;28;20194;-71
2023/02/20 01:37:31;;;;;;;2.92;1.58;;;9.60;67.90;;;;;;5064454;28;20190;-71
2023/02/20 01:39:59;;;;;;;8.63;1.83;;;9.60;68.00;;;;;;5053263;28;20195;-71
2023/02/20 01:42:30;;;;;;;2.70;1.50;;;9.60;67.70;;;;;;5060743;28;20201;-71
2023/02/20 01:45:18;;;;;;;5.63;2.38;;;9.70;67.90;;;;;;5073385;28;20267;-71
2023/02/20 01:47:45;;;;;;;4.45;2.22;;;9.60;67.90;;;;;;5062809;28;20190;-70
2023/02/20 01:50:14;;;;;;;3.85;2.05;;;9.60;67.90;;;;;;5053149;28;20240;-71
2023/02/20 01:52:43;;;;;;;4.78;2.00;;;9.60;67.50;;;;;;5062746;28;20547;-71
2023/02/20 01:55:15;;;;;;;2.85;2.20;;;9.60;67.50;;;;;;5073282;28;20209;-71
2023/02/20 01:57:50;;;;;;;4.75;2.50;;;9.60;67.80;;;;;;5063107;28;20244;-71
2023/02/20 02:00:23;;;;;;;9.20;2.45;;;9.60;68.00;;;;;;5052609;28;20256;-71
2023/02/20 02:02:53;;;;;;;3.28;2.13;;;9.60;67.70;;;;;;5063235;28;20196;-71
2023/02/20 02:05:22;;;;;;;5.50;2.63;;;9.60;67.50;;;;;;5072875;28;20200;-70
2023/02/20 02:07:49;;;;;;;3.50;2.22;;;9.60;67.70;;;;;;5062270;28;20232;-71
2023/02/20 02:10:21;;;;;;;5.18;2.40;;;9.60;67.50;;;;;;5052615;28;20194;-71
2023/02/20 02:12:51;;;;;;;5.25;2.05;;;9.60;67.50;;;;;;5064359;28;20186;-70
2023/02/20 02:15:23;;;;;;;3.35;2.28;;;9.60;67.70;;;;;;5070107;28;20718;-71
2023/02/20 02:18:15;;;;;;;4.78;2.03;;;9.60;67.70;;;;;;5052531;28;20531;-71
2023/02/20 02:21:23;;;;;;;6.13;2.58;;;9.60;67.80;;;;;;5056589;28;20517;-70
2023/02/20 02:24:38;;;;;;;4.85;2.72;;;9.60;67.70;;;;;;5072256;28;20257;-72
2023/02/20 02:27:41;;;;;;;3.85;2.22;;;9.60;67.90;;;;;;5034371;28;20223;-71
2023/02/20 02:30:41;;;;;;;4.32;2.58;;;9.60;67.60;;;;;;5029764;28;20673;-71
2023/02/20 02:33:47;;;;;;;4.25;2.35;;;9.60;67.30;;;;;;5049674;28;20193;-71
2023/02/20 02:36:53;;;;;;;4.30;2.17;;;9.60;67.10;;;;;;5059793;28;20257;-71
2023/02/20 02:39:26;;;;;;;5.28;2.33;;;9.60;67.00;;;;;;5072195;28;20207;-71
2023/02/20 02:42:00;;;;;;;3.85;1.80;;;9.60;66.80;;;;;;5058049;28;20174;-70
2023/02/20 02:44:36;;;;;;;3.67;2.13;;;9.60;67.00;;;;;;5051836;28;20664;-71
2023/02/20 02:47:07;;;;;;;3.70;2.15;;;9.60;67.20;;;;;;5066214;28;20258;-71
2023/02/20 02:49:43;;;;;;;4.20;2.22;;;9.50;67.30;;;;;;5069934;28;20190;-71
2023/02/20 02:52:37;;;;;;;4.95;2.33;;;9.50;67.50;;;;;;5071761;28;20185;-71
2023/02/20 02:55:00;;;;;;;4.40;2.70;;;9.50;67.30;;;;;;5058502;28;20202;-71
2023/02/20 02:57:28;;;;;;;4.05;2.42;;;9.50;67.30;;;;;;5051490;28;20190;-71
2023/02/20 03:00:00;;;;;;;4.35;2.92;;;9.50;67.50;;;;;;5063168;28;20368;-70
2023/02/20 03:02:32;;;;;;;4.90;2.38;;;9.50;67.70;;;;;;5070966;28;20603;-71
2023/02/20 03:05:01;;;;;;;5.07;2.90;;;9.60;67.30;;;;;;5059615;28;20218;-70
2023/02/20 03:07:34;;;;;;;3.78;2.65;;;9.50;67.10;;;;;;5051601;28;20194;-71
2023/02/20 03:10:06;;;;;;;6.72;2.38;;;9.50;67.00;;;;;;5054501;28;20186;-71
2023/02/20 03:12:34;;;;;;;3.50;2.65;;;9.50;67.00;;;;;;5050655;28;20186;-70
2023/02/20 03:18:04;;;;;;;3.17;2.28;;;9.50;67.30;;;;;;5071551;28;20323;-71
2023/02/20 03:20:32;;;;;;;3.85;2.30;;;9.40;67.40;;;;;;5056375;28;20194;-71
2023/02/20 03:23:02;;;;;;;3.75;2.38;;;9.40;67.20;;;;;;5051229;28;20202;-71
2023/02/20 03:25:34;;;;;;;6.57;2.80;;;9.40;67.20;;;;;;5064985;28;20186;-70
2023/02/20 03:28:03;;;;;;;4.60;2.50;;;9.40;67.10;;;;;;5071571;28;20193;-71
2023/02/20 03:30:35;;;;;;;3.50;2.25;;;9.40;67.10;;;;;;5057481;28;20283;-71
2023/02/20 03:44:17;;;;;;;4.70;2.40;;;9.30;67.10;;;;;;5052171;28;20251;-70
2023/02/20 03:46:47;;;;;;;7.32;2.65;;;9.30;67.10;;;;;;5071057;28;20555;-72
2023/02/20 03:49:19;;;;;;;4.10;2.15;;;9.30;67.10;;;;;;5070851;28;20690;-72
2023/02/20 03:51:46;;;;;;;3.92;2.25;;;9.20;66.90;;;;;;5071186;28;20513;-70
2023/02/20 03:54:15;;;;;;;4.25;2.40;;;9.20;66.90;;;;;;5070636;28;20656;-71
2023/02/20 03:56:51;;;;;;;4.68;2.95;;;9.20;67.00;;;;;;5052362;28;20189;-70
2023/02/20 03:59:22;;;;;;;3.53;2.20;;;9.20;66.70;;;;;;5050634;28;20190;-75
2023/02/20 04:01:54;;;;;;;5.68;2.88;;;9.20;66.50;;;;;;5071046;28;20236;-70
2023/02/20 04:04:28;;;;;;;4.57;2.33;;;9.10;66.30;;;;;;5070452;28;20701;-77
2023/02/20 04:06:56;;;;;;;3.10;2.00;;;9.00;66.20;;;;;;5031373;28;20194;-70
2023/02/20 04:09:30;;;;;;;3.78;2.15;;;8.90;66.20;;;;;;5031222;28;20251;-74
2023/02/20 04:12:01;;;;;;;5.38;2.10;;;8.90;66.20;;;;;;5050579;28;20633;-70
2023/02/20 04:14:30;;;;;;;4.10;2.38;;;8.80;66.30;;;;;;5051105;28;20191;-71
2023/02/20 04:17:02;;;;;;;3.03;1.77;;;8.80;66.40;;;;;;5071143;28;20532;-70
2023/02/20 04:19:30;;;;;;;6.05;2.25;;;8.70;66.40;;;;;;5070248;28;20197;-74
2023/02/20 04:22:02;;;;;;;5.80;2.60;;;8.60;66.60;;;;;;5051015;28;20209;-70
2023/02/20 04:24:36;;;;;;;3.05;2.00;;;8.60;66.80;;;;;;5053066;28;20222;-72
2023/02/20 04:27:04;;;;;;;3.20;2.00;;;8.50;66.90;;;;;;5074791;28;20209;-70
2023/02/20 04:29:31;;;;;;;3.72;2.20;;;8.50;66.90;;;;;;5074252;28;20193;-71
2023/02/20 04:31:59;;;;;;;4.43;2.22;;;8.40;67.00;;;;;;5054159;28;20321;-70
2023/02/20 04:34:26;;;;;;;4.93;2.30;;;8.40;67.40;;;;;;5054090;28;20225;-73
2023/02/20 04:37:04;;;;;;;3.33;1.55;;;8.30;67.50;;;;;;5073968;28;20196;-71
2023/02/20 04:39:33;;;;;;;4.13;1.58;;;8.30;67.70;;;;;;5073865;28;20276;-77
2023/02/20 04:42:00;;;;;;;5.60;3.28;;;8.20;67.80;;;;;;5054055;28;20191;-71
2023/02/20 04:44:34;;;;;;;3.25;1.80;;;8.20;68.10;;;;;;5054354;28;20268;-72
2023/02/20 04:47:03;;;;;;;4.80;2.20;;;8.10;68.30;;;;;;5034472;28;20191;-71
2023/02/20 04:49:31;;;;;;;3.75;2.22;;;8.10;68.50;;;;;;5034230;28;20546;-71
2023/02/20 04:51:58;;;;;;;4.72;2.30;;;8.00;68.70;;;;;;5073438;28;20588;-71
2023/02/20 04:54:26;;;;;;;3.78;1.95;;;8.00;68.90;;;;;;5072407;28;20252;-71
2023/02/20 04:56:54;;;;;;;5.57;2.63;;;7.90;68.90;;;;;;5071475;28;20705;-71
2023/02/20 04:59:21;;;;;;;6.72;2.03;;;7.90;69.00;;;;;;5065063;28;20226;-71
2023/02/20 05:01:50;;;;;;;5.78;2.00;;;7.90;69.30;;;;;;5053563;28;20226;-71
2023/02/20 05:04:19;;;;;;;10.27;2.30;;;7.90;69.40;;;;;;5061015;28;20219;-72
2023/02/20 05:06:51;;;;;;;6.22;3.38;;;7.80;69.20;;;;;;5071788;28;20193;-71
2023/02/20 05:09:19;;;;;;;6.07;2.80;;;7.80;69.50;;;;;;5053846;28;20217;-70
2023/02/20 05:11:47;;;;;;;4.57;2.80;;;7.70;69.40;;;;;;5054685;28;20191;-70
2023/02/20 05:14:15;;;;;;;5.95;2.67;;;7.70;69.60;;;;;;5071943;28;20185;-70
2023/02/20 05:16:44;;;;;;;4.57;2.65;;;7.60;69.60;;;;;;5053435;28;20208;-71
2023/02/20 05:19:12;;;;;;;9.93;5.40;;;7.60;69.70;;;;;;5053942;28;20233;-71
2023/02/20 05:24:23;;;;;;;7.32;4.30;;;7.50;69.90;;;;;;5062530;28;20202;-71
2023/02/20 05:26:52;;;;;;;8.63;3.20;;;7.40;70.20;;;;;;5073620;28;20248;-71
2023/02/20 05:29:21;;;;;;;4.53;3.10;;;7.40;70.20;;;;;;5071477;28;20197;-70
2023/02/20 05:31:48;;;;;;;3.58;2.78;;;7.40;70.20;;;;;;5053563;28;20269;-71
2023/02/20 05:34:15;;;;;;;5.60;2.28;;;7.30;70.10;;;;;;5067617;28;20190;-72
2023/02/20 05:36:43;;;;;;;5.13;2.40;;;7.20;70.00;;;;;;5072273;28;20194;-71
2023/02/20 05:39:10;;;;;;;5.20;2.40;;;7.10;70.10;;;;;;5062951;28;20191;-71
2023/02/20 05:41:37;;;;;;;5.38;2.40;;;6.90;70.30;;;;;;5053081;28;20187;-71
2023/02/20 05:44:05;;;;;;;7.15;2.72;;;6.80;70.90;;;;;;5052825;28;20218;-71
2023/02/20 05:46:40;;;;;;;3.50;2.05;;;6.70;71.00;;;;;;5053286;28;20194;-71
2023/02/20 05:49:07;;;;;;;6.72;2.47;;;6.70;71.30;;;;;;5053188;28;20591;-70
2023/02/20 05:51:35;;;;;;;4.60;2.45;;;6.60;71.50;;;;;;5063936;28;20190;-70
2023/02/20 05:54:02;;;;;;;8.15;3.75;;;6.50;72.20;;;;;;5065066;28;20199;-70
2023/02/20 05:56:31;;;;;;;8.27;2.20;;;6.40;72.40;;;;;;5050725;28;20214;-72
2023/02/20 05:58:59;;;;;;;2.92;2.05;;;6.40;72.20;;;;;;5051116;28;20220;-70
2023/02/20 06:01:28;;;;;;;4.00;2.35;;;6.30;72.10;;;;;;5050826;28;20321;-72
2023/02/20 06:03:57;;;;;;;7.50;2.88;;;6.30;72.80;;;;;;5046530;28;20190;-73
2023/02/20 06:06:31;;;;;;;4.85;2.45;;;6.20;73.20;;;;;;5048800;28;20691;-71
2023/02/20 06:08:58;;;;;;;4.72;2.50;;;6.20;73.40;;;;;;5050524;28;20186;-71
2023/02/20 06:11:25;;;;;;;10.57;3.05;;;6.20;73.70;;;;;;5053817;28;20182;-70
2023/02/20 06:13:53;;;;;;;3.58;2.42;;;6.20;74.10;;;;;;5055059;28;20194;-70
2023/02/20 06:16:23;;;;;;;10.50;2.70;;;6.20;74.30;;;;;;5054065;28;20269;-71
2023/02/20 06:18:50;;;;;;;5.10;2.58;;;6.20;74.50;;;;;;5049957;28;20273;-71
2023/02/20 06:21:19;;;;;;;5.22;2.08;;;6.30;74.90;;;;;;5050788;28;20267;-71
2023/02/20 06:23:47;;;;;;;3.60;2.20;;;6.30;74.90;;;;;;5050491;28;20249;-71
2023/02/20 06:26:15;;;;;;;4.75;1.80;;;6.40;74.90;;;;;;5050429;28;20225;-71
2023/02/20 06:28:42;;;;;;;5.72;2.42;;;6.50;74.70;;;;;;5050700;28;20194;-71
2023/02/20 06:31:11;;;;;;;3.53;2.35;;;6.50;74.30;;;;;;5052355;28;20194;-70
2023/02/20 06:33:38;;;;;;;3.33;2.50;;;6.50;73.80;;;;;;5050515;28;20190;-71
2023/02/20 06:36:06;;;;;;;5.57;3.40;;;6.50;73.80;;;;;;5050482;28;20201;-70
2023/02/20 06:38:36;;;;;;;5.28;2.88;;;6.50;73.70;;;;;;5050630;28;20186;-71
2023/02/20 06:41:04;;;;;;;5.93;2.95;;;6.50;73.60;;;;;;5050748;28;20310;-70
2023/02/20 06:43:31;;;;;;;5.82;3.13;;;6.50;73.30;;;;;;5049824;28;20193;-72
2023/02/20 06:45:58;;;;;;;4.95;2.47;;;6.60;72.70;;;;;;5050406;28;20218;-71
2023/02/20 06:48:31;;;;;;;8.18;4.03;;;6.60;72.30;;;;;;5050561;28;20194;-70
2023/02/20 06:50:58;;;;;;;6.63;3.50;;;6.50;71.80;;;;;;5050013;28;20611;-71
2023/02/20 06:53:25;;;;;;;9.15;3.60;;;6.50;71.70;;;;;;5046582;28;20510;-71
2023/02/20 06:55:54;;;;;;;6.25;3.20;;;6.60;72.10;;;;;;5050134;28;20293;-71
2023/02/20 06:58:21;;;;;;;5.80;4.25;;;6.70;72.50;;;;;;5052078;28;20198;-72
2023/02/20 07:00:49;;;;;;;6.22;4.00;;;7.00;72.80;;;;;;5049615;28;20315;-71
2023/02/20 07:03:16;;;;;;;5.85;3.40;;;7.20;72.10;;;;;;5050250;28;20252;-73
2023/02/20 07:05:45;;;;;;;6.90;3.45;;;7.40;71.50;;;;;;5049860;28;20704;-70
2023/02/20 07:08:12;;;;;;;6.40;3.55;;;7.60;70.60;;;;;;5049568;28;20224;-71
2023/02/20 07:10:39;;;;;;;9.48;3.25;;;7.70;70.00;;;;;;5049416;28;20652;-72
2023/02/20 07:13:08;;;;;;;5.28;2.35;;;7.90;69.60;;;;;;5053480;28;20211;-72
2023/02/20 07:15:35;;;;;;;4.70;2.20;;;8.10;69.00;;;;;;5046076;28;20286;-71
2023/02/20 07:18:02;;;;;;;9.18;3.72;;;8.20;68.50;;;;;;5047938;28;20195;-72
2023/02/20 07:20:29;;;;;;;7.40;3.42;;;8.50;68.20;;;;;;5046089;28;20533;-71
2023/02/20 07:22:56;;;;;;;5.00;2.97;;;8.90;67.40;;;;;;5045893;28;20194;-72
2023/02/20 07:25:23;;;;;;;8.48;4.38;;;9.40;65.20;;;;;;5048632;28;20297;-72
2023/02/20 07:27:51;;;;;;;8.13;4.50;;;9.80;64.00;;;;;;5049121;28;20965;-71
2023/02/20 07:30:20;;;;;;;6.72;3.55;;;10.10;61.50;;;;;;5048505;28;20552;-73
2023/02/20 07:32:47;;;;;;;4.95;3.15;;;10.50;60.10;;;;;;5048727;28;20198;-72
2023/02/20 07:35:15;;;;;;;7.43;4.10;;;10.80;58.30;;;;;;5049034;28;20665;-71
2023/02/20 07:37:42;;;;;;;9.20;5.80;;;11.00;58.40;;;;;;5049514;28;20191;-71
2023/02/20 07:40:10;;;;;;;10.90;5.35;;;11.30;56.90;;;;;;5049421;28;20255;-72
2023/02/20 07:42:37;;;;;;;10.77;4.32;;;11.60;56.30;;;;;;5049827;28;20190;-74
2023/02/20 07:45:06;;;;;;;5.82;3.90;;;11.80;55.70;;;;;;5049354;28;20214;-73
2023/02/20 07:47:34;;;;;;;6.88;4.70;;;12.10;54.90;;;;;;5045655;28;20190;-71
2023/02/20 07:50:02;;;;;;;4.60;3.95;;;12.50;53.90;;;;;;5049433;28;20198;-71
2023/02/20 07:52:29;;;;;;;4.63;3.00;;;12.80;52.90;;;;;;5049355;28;20198;-71
2023/02/20 07:54:56;;;;;;;4.85;2.85;;;13.00;52.50;;;;;;5057491;28;20269;-71
2023/02/20 07:57:23;;;;;;;9.00;2.90;;;13.40;52.10;;;;;;5070828;28;20239;-71
2023/02/20 07:59:50;;;;;;;4.00;2.50;;;13.90;50.80;;;;;;5074791;28;20277;-71
2023/02/20 08:02:17;;;;;;;3.70;2.27;;;14.50;50.20;;;;;;5061893;28;20547;-78
2023/02/20 08:04:45;;;;;;;8.77;2.50;;;15.00;47.60;;;;;;5065865;28;20475;-72
2023/02/20 08:07:12;;;;;;;4.00;2.27;;;15.40;46.10;;;;;;5075835;28;20891;-72
2023/02/20 08:09:39;;;;;;;4.27;2.00;;;15.70;45.40;;;;;;5075704;28;20475;-72
2023/02/20 08:12:07;;;;;;;4.23;2.27;;;16.10;44.80;;;;;;5061875;28;20540;-71
2023/02/20 08:14:33;;;;;;;3.40;2.10;;;16.50;42.90;;;;;;5054514;28;20537;-72
2023/02/20 08:17:00;;;;;;;3.20;2.10;;;17.00;41.40;;;;;;5054517;28;20523;-72
2023/02/20 08:19:27;;;;;;;6.73;2.60;;;17.30;41.30;;;;;;5055222;28;20531;-71
2023/02/20 08:21:56;;;;;;;3.07;1.87;;;17.70;40.40;;;;;;5055028;28;20445;-71
2023/02/20 08:24:23;;;;;;;3.00;2.53;;;18.10;39.90;;;;;;5054968;28;20468;-70
2023/02/20 08:26:50;;;;;;;5.60;2.40;;;18.60;38.10;;;;;;5055038;28;20488;-72
2023/02/20 08:29:17;;;;;;;3.80;2.30;;;18.70;36.30;;;;;;5055007;28;20447;-72
2023/02/20 08:31:44;;;;;;;7.17;2.90;;;18.90;37.10;;;;;;5055117;28;20524;-74
2023/02/20 08:34:11;;;;;;;2.73;1.87;;;19.30;35.90;;;;;;5055072;28;20475;-71
2023/02/20 08:36:40;;;;;;;4.40;2.27;;;19.60;35.40;;;;;;5054924;28;20531;-71
2023/02/20 08:39:08;;;;;;;5.67;2.30;;;20.30;35.00;;;;;;5054882;28;20528;-72
2023/02/20 08:41:35;;;;;;;4.13;1.83;;;21.30;33.70;;;;;;5054917;28;20528;-71
2023/02/20 08:44:02;;;;;;;6.60;1.73;;;22.40;32.30;;;;;;5054818;28;20524;-73
2023/02/20 08:46:29;;;;;;;2.80;1.63;;;23.50;30.60;;;;;;5054716;28;20569;-72
2023/02/20 08:48:56;;;;;;;4.10;1.50;;;24.80;29.50;;;;;;5054904;28;20551;-72
2023/02/20 08:51:23;;;;;;;2.70;1.50;;;25.70;27.70;;;;;;5054908;28;20469;-72
2023/02/20 08:53:50;;;;;;;3.13;1.37;;;25.00;27.20;;;;;;5054649;28;20519;-71
2023/02/20 08:56:20;;;;;;;4.20;2.20;;;23.60;27.70;;;;;;5055023;28;20521;-71
2023/02/20 08:58:47;;;;;;;2.83;1.57;;;22.20;28.10;;;;;;5054899;28;20445;-73
2023/02/20 09:01:14;;;;;;;3.90;1.60;;;21.00;29.40;;;;;;5054522;28;20547;-71
2023/02/20 09:03:42;;;;;;;2.80;2.10;;;20.20;30.40;;;;;;5054692;28;20447;-71
2023/02/20 09:06:09;;;;;;;3.83;1.77;;;19.70;31.00;;;;;;5054452;28;20816;-70
2023/02/20 09:08:36;;;;;;;3.53;1.60;;;19.60;31.50;;;;;;5054618;28;20468;-70
2023/02/20 09:11:03;;;;;;;4.47;2.60;;;19.30;31.90;;;;;;5053227;28;20533;-70
2023/02/20 09:13:31;;;;;;;2.90;2.17;;;19.00;33.20;;;;;;5054529;28;20453;-71
2023/02/20 09:15:58;;;;;;;3.50;1.43;;;19.20;32.80;;;;;;5054484;28;20516;-71
2023/02/20 09:18:25;;;;;;;5.90;1.93;;;19.80;32.50;;;;;;5053901;28;20473;-71
2023/02/20 09:20:53;;;;;;;7.20;2.40;;;19.90;31.80;;;;;;5054152;28;20477;-71
2023/02/20 09:23:23;;;;;;;5.33;2.00;;;19.50;32.20;;;;;;5054190;28;20829;-71
2023/02/20 09:25:50;;;;;;;3.40;1.33;;;19.10;31.70;;;;;;5054049;28;20476;-71
2023/02/20 09:28:17;;;;;;;2.67;1.40;;;18.70;32.90;;;;;;5054273;28;20480;-71
2023/02/20 09:30:45;;;;;;;3.93;1.90;;;18.70;32.90;;;;;;5054028;28;20433;-73
2023/02/20 09:33:13;;;;;;;3.10;1.40;;;20.20;32.20;;;;;;5053715;28;20975;-71
2023/02/20 09:35:40;;;;;;;2.67;1.60;;;23.90;29.30;;;;;;5053736;28;20962;-71
2023/02/20 09:38:07;;;;;;;2.20;1.07;;;27.60;26.70;;;;;;5053481;28;20531;-71
2023/02/20 09:40:34;;;;;;;2.60;1.30;;;30.80;22.90;;;;;;5053560;28;20436;-70
2023/02/20 09:43:14;;;;;;;4.93;1.60;;;33.30;20.30;;;;;;5053650;28;20527;-72
2023/02/20 09:45:46;;;;;;;4.17;1.63;;;35.40;17.60;;;;;;5053551;28;20492;-72
2023/02/20 09:48:26;;;;;;;2.83;1.30;;;36.40;16.00;;;;;;5053167;28;20437;-72
2023/02/20 09:50:58;;;;;;;2.50;1.60;;;37.50;15.40;;;;;;5053467;28;20962;-73
2023/02/20 09:53:35;;;;;;;2.50;1.30;;;38.70;14.10;;;;;;5053510;28;20440;-73
2023/02/20 09:56:04;;;;;;;3.07;1.47;;;39.20;13.00;;;;;;5053457;28;20498;-72
2023/02/20 09:58:41;;;;;;;3.70;1.73;;;39.40;12.60;;;;;;5053021;28;20477;-72
2023/02/20 10:01:11;;;;;;;2.83;1.27;;;39.90;12.10;;;;;;5053334;28;20563;-73
2023/02/20 10:03:53;;;;;;;2.47;1.30;;;40.70;11.70;;;;;;5053499;28;20444;-72
2023/02/20 10:06:24;;;;;;;2.73;1.30;;;41.30;10.60;;;;;;5053094;28;20490;-73
2023/02/20 10:08:53;;;;;;;2.70;1.30;;;41.40;11.20;;;;;;5053435;28;20608;-73
2023/02/20 10:11:29;;;;;;;4.00;2.23;;;41.90;10.30;;;;;;5052910;28;20445;-74
2023/02/20 10:14:07;;;;;;;3.30;1.30;;;42.70;10.10;;;;;;5053272;28;20432;-72
2023/02/20 10:16:42;;;;;;;3.10;1.60;;;43.10;9.80;;;;;;5053129;28;20452;-73
2023/02/20 10:19:22;;;;;;;4.00;1.43;;;43.70;10.00;;;;;;5053113;28;20535;-70
2023/02/20 10:22:00;;;;;;;5.60;4.30;;;44.30;9.50;;;;;;5052164;28;20460;-73
2023/02/20 10:24:45;;;;;;;2.83;1.60;;;44.40;9.20;;;;;;5053002;28;20512;-73
2023/02/20 10:27:29;;;;;;;3.17;1.57;;;44.80;8.60;;;;;;5052847;28;20499;-73
2023/02/20 10:29:58;;;;;;;3.40;1.27;;;45.10;8.60;;;;;;5052898;28;20437;-73
2023/02/20 10:32:30;;;;;;;2.23;1.00;;;45.50;8.40;;;;;;5052673;28;20926;-73
2023/02/20 10:35:05;;;;;;;4.87;2.40;;;45.90;8.30;;;;;;5052570;28;20476;-73
2023/02/20 10:37:37;;;;;;;5.37;1.70;;;46.40;8.20;;;;;;5052662;28;21014;-72
2023/02/20 10:40:13;;;;;;;2.50;1.20;;;46.80;7.80;;;;;;5052306;28;20440;-70
2023/02/20 10:42:44;;;;;;;2.90;1.43;;;46.70;7.60;;;;;;5052528;28;20531;-73
2023/02/20 10:45:17;;;;;;;2.50;1.40;;;46.90;7.30;;;;;;5052879;28;20939;-73
2023/02/20 10:47:47;;;;;;;2.50;1.50;;;46.70;7.10;;;;;;5052403;28;20548;-75
2023/02/20 10:50:22;;;;;;;2.73;1.40;;;46.70;7.10;;;;;;5052364;28;20464;-74
2023/02/20 10:52:55;;;;;;;5.30;2.13;;;46.50;7.30;;;;;;5052070;28;20519;-71
2023/02/20 10:55:28;;;;;;;3.70;1.60;;;46.80;7.40;;;;;;5052566;28;20433;-70
2023/02/20 10:57:58;;;;;;;3.00;1.33;;;46.80;7.40;;;;;;5051753;28;20528;-73
2023/02/20 11:00:31;;;;;;;2.83;1.20;;;46.90;7.10;;;;;;5051961;28;20527;-71
2023/02/20 11:03:05;;;;;;;2.10;1.20;;;47.30;7.00;;;;;;5052387;28;20788;-71
2023/02/20 11:05:38;;;;;;;2.93;1.13;;;47.80;7.00;;;;;;5049513;28;20441;-74
2023/02/20 11:08:05;;;;;;;2.63;1.03;;;48.10;6.70;;;;;;5052136;28;20477;-71
2023/02/20 11:10:34;;;;;;;2.90;1.90;;;48.10;6.80;;;;;;5052011;28;20480;-71
2023/02/20 11:13:02;;;;;;;2.40;1.40;;;48.30;6.90;;;;;;5052066;28;20439;-71
2023/02/20 11:15:35;;;;;;;2.40;1.03;;;48.80;6.70;;;;;;5052000;28;20449;-71
2023/02/20 11:18:16;;;;;;;3.60;1.47;;;49.20;5.90;;;;;;5051974;28;20481;-71
2023/02/20 11:20:46;;;;;;;2.70;1.23;;;49.50;6.10;;;;;;5052341;28;20967;-71
2023/02/20 11:23:39;;;;;;;3.17;1.10;;;49.80;5.90;;;;;;5051964;28;20834;-71
2023/02/20 11:26:27;;;;;;;2.20;1.20;;;49.70;5.70;;;;;;5052187;28;20441;-71
2023/02/20 11:29:00;;;;;;;2.77;1.13;;;49.80;5.80;;;;;;5051795;28;20465;-71
2023/02/20 11:31:27;;;;;;;3.17;1.40;;;49.90;5.30;;;;;;5051903;28;20467;-72
2023/02/20 11:33:55;;;;;;;4.03;1.20;;;49.80;5.50;;;;;;5051224;28;20520;-73
2023/02/20 11:36:26;;;;;;;4.50;3.67;;;49.70;5.80;;;;;;5051909;28;20483;-73
2023/02/20 11:38:58;;;;;;;3.13;1.53;;;49.80;5.10;;;;;;5051946;28;20496;-73
2023/02/20 11:41:32;;;;;;;2.30;1.00;;;49.80;4.80;;;;;;5052062;28;20544;-72
2023/02/20 11:44:24;;;;;;;3.57;1.53;;;49.70;5.30;;;;;;5051551;28;20985;-73
2023/02/20 11:50:14;;;;;;;2.60;1.40;;;49.90;4.70;;;;;;5051988;28;20445;-73
2023/02/20 11:52:58;;;;;;;3.10;1.00;;;50.10;4.70;;;;;;5051718;28;20444;-73
2023/02/20 11:55:28;;;;;;;3.30;1.00;;;50.20;4.70;;;;;;5051811;28;20932;-74
2023/02/20 11:57:55;;;;;;;3.80;1.00;;;50.20;4.80;;;;;;5051511;28;20550;-73
2023/02/20 12:00:24;;;;;;;2.27;1.20;;;50.40;4.50;;;;;;5051257;28;20493;-73
2023/02/20 12:02:54;;;;;;;2.37;0.80;;;50.40;4.80;;;;;;5047395;28;20469;-73
2023/02/20 12:05:28;;;;;;;3.00;0.90;;;50.50;4.40;;;;;;5049878;28;20463;-73
2023/02/20 12:07:59;;;;;;;3.33;0.97;;;50.40;4.50;;;;;;5066311;28;20479;-73
2023/02/20 12:10:41;;;;;;;2.33;1.50;;;50.40;4.90;;;;;;5062670;28;20810;-74
2023/02/20 12:13:14;;;;;;;3.13;1.87;;;50.50;4.70;;;;;;5055972;28;20437;-74
2023/02/20 12:15:43;;;;;;;3.00;1.37;;;50.30;4.70;;;;;;5064976;28;20585;-73
2023/02/20 12:18:33;;;;;;;2.43;1.00;;;50.30;4.80;;;;;;5050309;28;20453;-73
2023/02/20 12:21:14;;;;;;;4.23;1.17;;;50.40;4.70;;;;;;5051379;28;20452;-73
2023/02/20 12:23:56;;;;;;;1.80;0.97;;;50.20;4.60;;;;;;5050006;28;20830;-72
2023/02/20 12:26:43;;;;;;;6.23;5.63;;;50.20;4.50;;;;;;5060873;28;20471;-72
2023/02/20 12:29:26;;;;;;;5.23;1.30;;;50.10;4.60;;;;;;5047868;28;20440;-71
2023/02/20 12:32:03;;;;;;;4.03;1.20;;;50.00;4.30;;;;;;5054582;28;20464;-75
2023/02/20 12:34:54;;;;;;;3.10;1.50;;;49.80;4.70;;;;;;5044592;28;20855;-72
2023/02/20 12:37:34;;;;;;;2.70;1.70;;;49.60;4.70;;;;;;5070658;28;20574;-72
2023/02/20 12:40:23;;;;;;;3.70;1.60;;;49.50;4.60;;;;;;5060467;28;20535;-72
2023/02/20 12:42:57;;;;;;;2.90;1.60;;;49.30;4.60;;;;;;5056022;28;20493;-73
2023/02/20 12:45:30;;;;;;;4.23;1.27;;;49.20;4.50;;;;;;5060354;28;20452;-72
2023/02/20 12:48:26;;;;;;;4.77;0.87;;;49.00;4.50;;;;;;5054671;28;20848;-72
2023/02/20 12:51:06;;;;;;;3.73;1.53;;;48.70;4.70;;;;;;5054173;28;20494;-72
2023/02/20 12:53:44;;;;;;;2.60;1.17;;;48.50;4.60;;;;;;5065602;28;20778;-72
2023/02/20 12:56:27;;;;;;;5.20;1.30;;;48.30;4.70;;;;;;5074572;28;20439;-73
2023/02/20 12:59:00;;;;;;;3.50;0.80;;;48.10;4.80;;;;;;5056554;28;20440;-72
2023/02/20 13:01:28;;;;;;;2.30;0.90;;;47.90;4.90;;;;;;5054108;28;20460;-72
2023/02/20 13:04:03;;;;;;;3.30;2.27;;;47.60;4.80;;;;;;5054054;28;20480;-72
2023/02/20 13:06:35;;;;;;;4.60;3.60;;;47.40;4.80;;;;;;5065043;28;20440;-72
2023/02/20 13:09:07;;;;;;;3.83;1.87;;;47.20;4.90;;;;;;5054102;28;20461;-72
2023/02/20 13:11:41;;;;;;;2.60;1.33;;;47.10;5.10;;;;;;5056550;28;20448;-72
2023/02/20 13:14:21;;;;;;;3.63;1.53;;;46.90;4.90;;;;;;5051414;28;20459;-72
2023/02/20 13:16:58;;;;;;;1.90;0.90;;;46.50;5.00;;;;;;5067256;28;20570;-72
2023/02/20 13:19:30;;;;;;;1.90;0.77;;;46.20;5.20;;;;;;5055889;28;20504;-71
2023/02/20 13:21:58;;;;;;;2.40;0.80;;;45.80;5.30;;;;;;5054705;28;20896;-71
2023/02/20 13:24:31;;;;;;;2.53;0.77;;;45.40;5.30;;;;;;5054333;28;20966;-71
2023/02/20 13:27:05;;;;;;;3.37;1.07;;;45.20;5.30;;;;;;5054360;28;20445;-71
2023/02/20 13:29:35;;;;;;;2.70;1.00;;;45.00;5.60;;;;;;5054651;28;20610;-72
2023/02/20 13:32:04;;;;;;;2.80;0.73;;;44.50;5.40;;;;;;5054506;28;20444;-72
2023/02/20 13:34:35;;;;;;;3.77;0.90;;;44.10;5.50;;;;;;5054555;28;20499;-72
2023/02/20 13:37:03;;;;;;;3.30;0.90;;;43.60;5.80;;;;;;5054344;28;20495;-71